• Join FlightAware (Why Join?)
  • Login
  • US Flag 
08:52PM EDT


 

Airport Tracker/Info


-or-


 

Live Flight TrackerFlight Track Log ✈ SWA2955 ✈ 08-Apr-2013 ✈ KISP - KFLL

Flight Track Log - Related Links

Times and Time Zones

All times are in EDT time to prevent confusion due to time zone crossing. See the SWA2955 flight status page for this flight to view local times or setup timezone preferences in your user account.

Time Position Orientation Groundspeed Altitude Reporting Facility
EDT Latitude Longitude Course Direction KTS MPH feet Rate Location/Type
07:03AM 40.7728 -73.1306 90° East 151 174 1,500  Level Boston Center
07:04AM 40.7397 -73.0647 124° Southeast 142 163 3,000 1,800 Climbing Boston Center
07:05AM 40.7425 -72.9714 88° East 179 206 5,200 2,400 Climbing Boston Center
07:07AM 40.7408 -72.8675 91° East 222 255 8,000 2,820 Climbing Boston Center
07:08AM 40.7328 -72.7494 95° East 275 316 10,900 3,000 Climbing Boston Center
07:08AM 40.6725 -72.6728 136° Southeast 307 353 14,000 2,760 Climbing Boston Center
07:09AM 40.7333 -72.5475 90° East  Level FlightAware Approximate
07:09AM 40.5975 -72.7244 208° Southwest 214 246 16,400  Level Boston Center
07:10AM 40.5242 -72.8086 221° Southwest 253 291 19,200 2,760 Climbing Boston Center
07:12AM 40.4511 -72.8928 221° Southwest 336 387 22,100 2,700 Climbing Boston Center
07:12AM 40.3736 -72.9822 221° Southwest 354 407 24,600 2,160 Climbing Boston Center
07:15AM 40.1872 -73.1908 221° Southwest 388 447 29,100 1,980 Climbing Washington Center
07:16AM 40.1017 -73.2861 220° Southwest 406 467 31,200 1,980 Climbing Washington Center
07:17AM 40.0161 -73.3811 220° Southwest 406 467 33,100 1,560 Climbing Washington Center
07:18AM 39.9281 -73.4758 220° Southwest 411 473 34,400 1,500 Climbing Washington Center
07:19AM 39.8381 -73.5703 219° Southwest 416 479 36,100 1,500 Climbing Washington Center
07:20AM 39.7500 -73.6700 221° Southwest 416 479 37,500 900 Climbing Washington Center
07:21AM 39.6600 -73.7667 220° Southwest 416 479 38,000 240 Climbing Washington Center
07:22AM 39.5739 -73.8631 221° Southwest 421 484 38,000  Level Washington Center
07:23AM 39.4878 -73.9567 220° Southwest 421 484 38,000  Level Washington Center
07:24AM 39.3994 -74.0528 220° Southwest 421 484 38,000  Level Washington Center
07:25AM 39.3131 -74.1483 221° Southwest 421 484 38,000  Level Washington Center
07:26AM 39.2225 -74.2414 219° Southwest 421 484 38,000  Level Washington Center
07:27AM 39.1253 -74.3181 211° Southwest 421 484 38,000  Level Washington Center
07:28AM 39.0281 -74.3972 212° Southwest 421 484 38,000  Level Washington Center
07:29AM 38.9289 -74.4736 211° Southwest 416 479 38,000  Level Washington Center
07:30AM 38.8317 -74.5550 213° Southwest 416 479 38,000  Level Washington Center
07:31AM 38.7322 -74.6308 211° Southwest 416 479 38,000  Level Washington Center
07:32AM 38.6328 -74.7119 213° Southwest 426 490 38,000  Level Washington Center
07:33AM 38.5331 -74.7875 211° Southwest 426 490 38,000  Level Washington Center
07:34AM 38.4272 -74.8469 204° Southwest 419 482 38,000  Level Washington Center
07:35AM 38.3192 -74.9089 204° Southwest 419 482 38,000  Level Washington Center
07:36AM 38.2133 -74.9761 207° Southwest 419 482 38,000  Level Washington Center
07:37AM 38.1031 -75.0325 202° Southwest 419 482 38,000  Level Washington Center
07:38AM 37.9989 -75.0964 206° Southwest 419 482 38,000 660 Level Washington Center
07:39AM 37.8886 -75.1550 203° Southwest 424 488 39,400 960 Climbing Washington Center
07:40AM 37.7867 -75.2186 206° Southwest 424 488 40,000 300 Climbing Washington Center
07:41AM 37.6806 -75.2744 203° Southwest 419 482 40,000  Level Washington Center
07:42AM 37.5742 -75.3378 205° Southwest 424 488 40,000  Level Washington Center
07:43AM 37.4681 -75.3956 203° Southwest 424 488 40,000  Level Washington Center
07:44AM 37.3742 -75.4481 204° Southwest 418 481 40,000  Level Washington Center
07:45AM 37.2678 -75.5058 203° Southwest 418 481 40,000  Level Washington Center
07:46AM 37.1617 -75.5633 203° Southwest 418 481 40,000  Level Washington Center
07:47AM 37.0553 -75.6231 204° Southwest 423 487 40,000  Level Washington Center
07:48AM 36.9486 -75.6803 203° Southwest 423 487 40,000  Level Washington Center
07:49AM 36.8422 -75.7372 203° Southwest 423 487 40,000  Level Washington Center
07:50AM 36.7336 -75.7992 205° Southwest 423 487 40,000  Level Washington Center
07:51AM 36.6250 -75.8586 204° Southwest 423 487 40,000  Level Washington Center
07:52AM 36.5186 -75.9150 203° Southwest 428 493 40,000  Level Washington Center
07:53AM 36.4119 -75.9764 205° Southwest 422 486 40,000  Level Washington Center
07:54AM 36.3053 -76.0353 204° Southwest 422 486 40,000  Level Washington Center
07:55AM 36.1967 -76.0861 201° Southwest 422 486 40,000  Level Washington Center
07:56AM 36.0900 -76.1472 205° Southwest 422 486 40,000  Level Washington Center
07:57AM 35.9856 -76.2031 203° Southwest 422 486 40,000  Level Washington Center
07:58AM 35.8786 -76.2636 205° Southwest 422 486 40,000  Level Washington Center
07:59AM 35.7700 -76.3192 203° Southwest 422 486 40,000  Level Washington Center
08:00AM 35.6653 -76.3744 203° Southwest 422 486 40,000  Level Washington Center
08:01AM 35.5583 -76.4319 204° Southwest 422 486 40,000  Level Washington Center
08:02AM 35.4517 -76.4897 204° Southwest 422 486 40,000  Level Washington Center
08:03AM 35.3447 -76.5469 204° Southwest 422 486 40,000  Level Washington Center
08:04AM 35.2400 -76.6017 203° Southwest 422 486 40,000  Level Washington Center
08:05AM 35.1331 -76.6589 204° Southwest 422 486 40,000  Level Washington Center
08:06AM 35.0283 -76.7183 205° Southwest 422 486 40,000  Level Washington Center
08:07AM 34.9192 -76.7725 202° Southwest 422 486 40,000  Level Washington Center
08:08AM 34.8122 -76.8292 204° Southwest 422 486 40,000  Level Washington Center
08:09AM 34.7053 -76.8831 203° Southwest 422 486 40,000  Level Washington Center
08:10AM 34.5983 -76.9394 203° Southwest 422 486 40,000  Level Washington Center
08:11AM 34.4953 -76.9906 202° Southwest 422 486 40,000  Level Washington Center
08:12AM 34.3903 -77.0467 204° Southwest 417 480 40,000  Level Washington Center
08:14AM 34.1856 -77.1519 203° Southwest 425 489 40,000  Level Jacksonville Center
08:15AM 34.0817 -77.2039 202° Southwest 425 489 40,000  Level Jacksonville Center
08:16AM 33.9878 -77.2500 202° Southwest 420 483 40,000  Level Jacksonville Center
08:17AM 33.8794 -77.3044 203° Southwest 420 483 40,000  Level Jacksonville Center
08:18AM 33.7733 -77.3589 203° Southwest 420 483 40,000  Level Jacksonville Center
08:19AM 33.6672 -77.4128 203° Southwest 415 478 40,000  Level Jacksonville Center
08:20AM 33.5611 -77.4669 203° Southwest 415 478 40,000  Level Jacksonville Center
08:21AM 33.4592 -77.5203 204° Southwest 410 472 40,000  Level Jacksonville Center
08:22AM 33.3508 -77.5717 202° Southwest 410 472 40,000  Level Jacksonville Center
08:23AM 33.2444 -77.6228 202° Southwest 410 472 40,000  Level Jacksonville Center
08:24AM 33.1403 -77.6783 204° Southwest 410 472 40,000  Level Jacksonville Center
08:25AM 33.0339 -77.7317 203° Southwest 410 472 40,000  Level Jacksonville Center
08:26AM 32.9294 -77.7822 202° Southwest 410 472 40,000  Level Jacksonville Center
08:27AM 32.8231 -77.8353 203° Southwest 410 472 40,000  Level Jacksonville Center
08:28AM 32.7186 -77.8856 202° Southwest 410 472 40,000  Level Jacksonville Center
08:29AM 32.6125 -77.9408 204° Southwest 410 472 40,000  Level Jacksonville Center
08:30AM 32.5058 -77.9933 203° Southwest 415 478 40,000  Level Jacksonville Center
08:31AM 32.3972 -78.0433 201° Southwest 415 478 40,000  Level Jacksonville Center
08:32AM 32.2886 -78.0958 202° Southwest 415 478 40,000  Level Jacksonville Center
08:33AM 32.1822 -78.1531 204° Southwest 420 483 40,000  Level Jacksonville Center
08:34AM 32.0736 -78.2053 202° Southwest 425 489 40,000  Level Jacksonville Center
08:35AM 31.9547 -78.2650 203° Southwest 425 489 40,000  Level Jacksonville Center
08:36AM 31.8500 -78.3144 202° Southwest 424 488 40,000  Level Jacksonville Center
08:37AM 31.7353 -78.3714 203° Southwest 431 496 40,000  Level Jacksonville Center
08:38AM 31.6264 -78.4231 202° Southwest 426 490 40,000  Level Jacksonville Center
08:39AM 31.5175 -78.4769 203° Southwest 425 489 40,000  Level Jacksonville Center
08:40AM 31.4067 -78.5308 203° Southwest 425 489 40,000  Level Jacksonville Center
08:41AM 31.2958 -78.5847 203° Southwest 430 495 40,000  Level Jacksonville Center
08:42AM 31.1889 -78.6333 201° Southwest 425 489 40,000  Level Jacksonville Center
08:43AM 31.0800 -78.6842 202° Southwest 425 489 40,000  Level Jacksonville Center
08:44AM 30.9711 -78.7400 204° Southwest 432 497 40,000  Level Jacksonville Center
08:45AM 30.8622 -78.7908 202° Southwest 427 491 40,000  Level Jacksonville Center
08:46AM 30.7511 -78.8414 201° Southwest 422 486 40,000  Level Jacksonville Center
08:47AM 30.6419 -78.8894 201° Southwest 422 486 40,000  Level Jacksonville Center
08:47AM 30.6075 -78.9108 208° Southwest 420 483 40,000  Level Miami Center
08:48AM 30.5003 -78.9592 201° Southwest 432 497 40,000  Level Miami Center
08:49AM 30.3850 -79.0028 198° South 432 497 40,000  Level Miami Center
08:50AM 30.2764 -79.0342 194° South 427 491 40,000  Level Miami Center
08:51AM 30.1569 -79.0653 193° South 427 491 40,000  Level Miami Center
08:52AM 30.0397 -79.0964 193° South 434 499 40,000  Level Miami Center
08:53AM 29.9286 -79.1300 195° South 426 490 40,000  Level Miami Center
08:54AM 29.8136 -79.1611 193° South 419 482 40,000 -600 Level Miami Center
08:55AM 29.7003 -79.1944 194° South 424 488 38,900 -1,020 Descending Miami Center
08:56AM 29.5831 -79.2231 192° South 431 496 38,000 -960 Descending Miami Center
08:57AM 29.4575 -79.2442 188° South 438 504 37,000 -960 Descending Miami Center
08:58AM 29.3444 -79.2797 195° South 438 504 36,100 -960 Descending Miami Center
08:59AM 29.2272 -79.3081 192° South 438 504 35,100 -960 Descending Miami Center
09:00AM 29.1078 -79.3386 193° South 438 504 34,200 -960 Descending Miami Center
09:01AM 28.9883 -79.3667 192° South 433 498 33,200 -960 Descending Miami Center
09:02AM 28.8583 -79.3994 192° South 433 498 32,300 -1,020 Descending Miami Center
09:03AM 28.7367 -79.4297 192° South 438 504 31,200 -1,080 Descending Miami Center
09:04AM 28.6153 -79.4600 192° South 444 511 30,200 -1,020 Descending Miami Center
09:05AM 28.4958 -79.4881 192° South 444 511 29,200 -1,020 Descending Miami Center
09:06AM 28.3825 -79.5158 192° South 434 499 28,200 -1,080 Descending Miami Center
09:07AM 28.2692 -79.5464 193° South 424 488 27,100 -1,080 Descending Miami Center
09:08AM 28.1581 -79.5719 191° South 424 488 26,100 -1,020 Descending Miami Center
09:09AM 28.0469 -79.5997 192° South 413 475 25,100 -1,020 Descending Miami Center
09:10AM 27.9358 -79.6253 191° South 413 475 24,100 -600 Descending Miami Center
09:11AM 27.8267 -79.6508 192° South 407 468 24,000 -60 Descending Miami Center
09:12AM 27.7197 -79.6789 193° South 402 463 24,000  Level Miami Center
09:13AM 27.6192 -79.7019 191° South 407 468 24,000 -120 Level Miami Center
09:14AM 27.5100 -79.7275 192° South 407 468 23,800 -660 Descending Miami Center
09:15AM 27.3850 -79.7150 175° South 413 475 22,700 -1,080 Descending Miami Center
09:16AM 27.2725 -79.6983 172° South 408 470 21,700 -1,020 Descending Miami Center
09:17AM 27.1639 -79.6956 179° South 401 461 20,700 -1,020 Descending Miami Center
09:18AM 27.0658 -79.6956 180° South 396 456 19,700 -960 Descending Miami Center
09:19AM 26.9594 -79.6883 177° South 390 449 18,800 -1,260 Descending Miami Center
09:20AM 26.8425 -79.6853 179° South 379 436 17,200 -2,040 Descending Miami Center
09:21AM 26.7506 -79.6903 183° South 383 441 15,100 -2,640 Descending Miami Center
09:21AM 26.6894 -79.7144 199° South 373 429 13,400 -2,580 Descending Miami Center
09:22AM 26.6389 -79.7364 201° Southwest 377 434 12,100 -1,980 Descending Miami Center
09:23AM 26.5819 -79.7650 204° Southwest 360 414 11,200 -1,200 Descending Miami Center
09:23AM 26.5589 -79.7739 199° South 361 415 10,900 -720 Descending Miami Center
09:24AM 26.4997 -79.8050 205° Southwest 303 349 10,500 -840 Descending Miami Center
09:24AM 26.4703 -79.8158 198° South 323 372 10,100 -1,920 Descending Miami Center
09:25AM 26.4258 -79.8403 206° Southwest 286 329 8,600 -2,040 Descending Miami Center
09:25AM 26.4069 -79.8467 197° South 294 338 8,100 -600 Descending Miami Center
09:26AM 26.3583 -79.8825 213° Southwest 288 331 8,000 -600 Descending Miami Center
09:26AM 26.3328 -79.9050 218° Southwest 289 333 7,500 -1,380 Descending Miami Center
09:27AM 26.2922 -79.9458 222° Southwest 292 336 6,600 -1,200 Descending Miami Center
09:27AM 26.2794 -79.9569 218° Southwest 294 338 6,300 -600 Descending Miami Center
09:28AM 26.2325 -80.0044 222° Southwest 271 312 6,000 -300 Descending Miami Center
09:28AM 26.2258 -80.0136 231° Southwest 285 328 6,000 60 Level Miami Center
09:29AM 26.1833 -80.0517 219° Southwest 258 297 6,100  Climbing Miami Center
09:29AM 26.1767 -80.0700 248° West 273 314 6,000  Descending Miami Center
09:30AM 26.1586 -80.1250 250° West 254 292 6,100  Climbing Miami Center
09:30AM 26.1561 -80.1436 261° West 251 289 6,000 -540 Descending Miami Center
09:31AM 26.1486 -80.1989 261° West 225 259 5,600 -900 Descending Miami Center
09:32AM 26.1489 -80.2797 270° West 230 265 4,500 -780 Descending Miami Center
09:33AM 26.1472 -80.3517 269° West 233 268 4,000 -300 Descending Miami Center
09:34AM 26.1475 -80.4233 270° West 232 267 4,000 -180 Level Miami Center
09:35AM 26.1072 -80.4567 217° Southwest 185 213 3,700 -540 Descending Miami Center
09:36AM 26.0789 -80.4189 130° Southeast 169 194 3,000 -360 Descending Miami Center
09:37AM 26.0758 -80.3681 94° East 170 196 3,000 -300 Level Miami Center
09:38AM 26.0753 -80.3078 91° East 170 196 2,400 -720 Descending Miami Center
09:39AM 26.0744 -80.2547 91° East 170 196 1,500 -840 Descending Miami Center
09:40AM 26.0756 -80.2061 89° East 144 166 700 -840 Descending Miami Center
09:42AM 26.0667 -80.1500 103° East  Level FlightAware Approximate
09:49AM 26.0726 -80.1527 103° East  Level Estimated